sensor_id;sensor_type;location;lat;lon;timestamp;temperature;humidity
64869;DHT22;51349;52.424;10.840;2024-03-22T00:02:40;7.20;99.90
64869;DHT22;51349;52.424;10.840;2024-03-22T00:07:41;7.20;99.90
64869;DHT22;51349;52.424;10.840;2024-03-22T00:12:41;7.20;99.90
64869;DHT22;51349;52.424;10.840;2024-03-22T00:17:45;7.20;99.90
64869;DHT22;51349;52.424;10.840;2024-03-22T00:22:46;7.20;99.90
64869;DHT22;51349;52.424;10.840;2024-03-22T00:27:46;7.20;99.90
64869;DHT22;51349;52.424;10.840;2024-03-22T00:32:47;7.30;99.90
64869;DHT22;51349;52.424;10.840;2024-03-22T00:37:48;7.30;99.90
64869;DHT22;51349;52.424;10.840;2024-03-22T00:42:48;7.30;99.90
64869;DHT22;51349;52.424;10.840;2024-03-22T00:47:49;7.30;99.90
64869;DHT22;51349;52.424;10.840;2024-03-22T00:52:51;7.40;99.90
64869;DHT22;51349;52.424;10.840;2024-03-22T00:57:52;7.40;99.90
64869;DHT22;51349;52.424;10.840;2024-03-22T01:02:53;7.40;99.90
64869;DHT22;51349;52.424;10.840;2024-03-22T01:07:53;7.40;99.90
64869;DHT22;51349;52.424;10.840;2024-03-22T01:12:54;7.50;99.90
64869;DHT22;51349;52.424;10.840;2024-03-22T01:17:55;7.50;99.90
64869;DHT22;51349;52.424;10.840;2024-03-22T01:22:56;7.60;99.90
64869;DHT22;51349;52.424;10.840;2024-03-22T01:27:56;7.60;99.90
64869;DHT22;51349;52.424;10.840;2024-03-22T01:32:57;7.60;99.90
64869;DHT22;51349;52.424;10.840;2024-03-22T01:37:57;7.60;99.90
64869;DHT22;51349;52.424;10.840;2024-03-22T01:43:00;7.70;99.90
64869;DHT22;51349;52.424;10.840;2024-03-22T01:48:00;7.80;99.90
64869;DHT22;51349;52.424;10.840;2024-03-22T01:53:01;7.70;99.90
64869;DHT22;51349;52.424;10.840;2024-03-22T01:58:03;7.80;99.90
64869;DHT22;51349;52.424;10.840;2024-03-22T02:03:04;7.80;99.90
64869;DHT22;51349;52.424;10.840;2024-03-22T02:08:05;7.80;99.90
64869;DHT22;51349;52.424;10.840;2024-03-22T02:13:06;7.90;99.90
64869;DHT22;51349;52.424;10.840;2024-03-22T02:18:06;7.90;99.90
64869;DHT22;51349;52.424;10.840;2024-03-22T02:23:07;8.00;99.90
64869;DHT22;51349;52.424;10.840;2024-03-22T02:28:08;8.10;99.90
64869;DHT22;51349;52.424;10.840;2024-03-22T02:33:08;8.00;99.90
64869;DHT22;51349;52.424;10.840;2024-03-22T02:38:09;8.10;99.90
64869;DHT22;51349;52.424;10.840;2024-03-22T02:43:10;8.10;99.90
64869;DHT22;51349;52.424;10.840;2024-03-22T02:48:11;8.20;99.90
64869;DHT22;51349;52.424;10.840;2024-03-22T02:53:12;8.20;99.90
64869;DHT22;51349;52.424;10.840;2024-03-22T02:58:12;8.20;99.90
64869;DHT22;51349;52.424;10.840;2024-03-22T03:03:13;8.30;99.90
64869;DHT22;51349;52.424;10.840;2024-03-22T03:08:14;8.30;99.90
64869;DHT22;51349;52.424;10.840;2024-03-22T03:13:15;8.30;99.90
64869;DHT22;51349;52.424;10.840;2024-03-22T03:18:15;8.40;99.90
64869;DHT22;51349;52.424;10.840;2024-03-22T03:23:16;8.40;99.90
64869;DHT22;51349;52.424;10.840;2024-03-22T03:28:16;8.40;99.90
64869;DHT22;51349;52.424;10.840;2024-03-22T03:33:18;8.40;99.90
64869;DHT22;51349;52.424;10.840;2024-03-22T03:38:19;8.40;99.90
64869;DHT22;51349;52.424;10.840;2024-03-22T03:43:20;8.40;99.90
64869;DHT22;51349;52.424;10.840;2024-03-22T03:48:20;8.50;99.90
64869;DHT22;51349;52.424;10.840;2024-03-22T03:53:21;8.50;99.90
64869;DHT22;51349;52.424;10.840;2024-03-22T03:58:22;8.60;99.90
64869;DHT22;51349;52.424;10.840;2024-03-22T04:03:23;8.60;99.90
64869;DHT22;51349;52.424;10.840;2024-03-22T04:08:25;8.60;99.90
64869;DHT22;51349;52.424;10.840;2024-03-22T04:13:28;8.70;99.90
64869;DHT22;51349;52.424;10.840;2024-03-22T04:18:28;8.60;99.90
64869;DHT22;51349;52.424;10.840;2024-03-22T04:23:29;8.50;99.90
64869;DHT22;51349;52.424;10.840;2024-03-22T04:28:30;8.60;99.90
64869;DHT22;51349;52.424;10.840;2024-03-22T04:33:31;8.50;99.90
64869;DHT22;51349;52.424;10.840;2024-03-22T04:38:32;8.50;99.90
64869;DHT22;51349;52.424;10.840;2024-03-22T04:43:33;8.50;99.90
64869;DHT22;51349;52.424;10.840;2024-03-22T04:48:33;8.50;99.90
64869;DHT22;51349;52.424;10.840;2024-03-22T04:53:34;8.50;99.90
64869;DHT22;51349;52.424;10.840;2024-03-22T04:58:35;8.60;99.90
64869;DHT22;51349;52.424;10.840;2024-03-22T05:03:35;8.60;99.90
64869;DHT22;51349;52.424;10.840;2024-03-22T05:08:36;8.60;99.90
64869;DHT22;51349;52.424;10.840;2024-03-22T05:13:37;8.50;99.90
64869;DHT22;51349;52.424;10.840;2024-03-22T05:18:40;8.60;99.90
64869;DHT22;51349;52.424;10.840;2024-03-22T05:23:40;8.60;99.90
64869;DHT22;51349;52.424;10.840;2024-03-22T05:28:41;8.60;99.90
64869;DHT22;51349;52.424;10.840;2024-03-22T05:33:41;8.60;99.90
64869;DHT22;51349;52.424;10.840;2024-03-22T05:38:42;8.70;99.90
64869;DHT22;51349;52.424;10.840;2024-03-22T05:43:43;8.80;99.90
64869;DHT22;51349;52.424;10.840;2024-03-22T05:48:43;8.80;99.90
64869;DHT22;51349;52.424;10.840;2024-03-22T05:53:45;8.90;99.90
64869;DHT22;51349;52.424;10.840;2024-03-22T05:58:45;8.90;99.90
64869;DHT22;51349;52.424;10.840;2024-03-22T06:03:46;9.00;99.90
64869;DHT22;51349;52.424;10.840;2024-03-22T06:08:47;9.10;99.90
64869;DHT22;51349;52.424;10.840;2024-03-22T06:13:52;9.10;99.90
64869;DHT22;51349;52.424;10.840;2024-03-22T06:18:53;9.20;99.90
64869;DHT22;51349;52.424;10.840;2024-03-22T06:23:53;9.30;99.90
64869;DHT22;51349;52.424;10.840;2024-03-22T06:28:54;9.40;99.90
64869;DHT22;51349;52.424;10.840;2024-03-22T06:33:55;9.40;99.90
64869;DHT22;51349;52.424;10.840;2024-03-22T06:39:02;9.60;99.90
64869;DHT22;51349;52.424;10.840;2024-03-22T06:44:08;9.70;99.90
64869;DHT22;51349;52.424;10.840;2024-03-22T06:49:12;9.70;99.90
64869;DHT22;51349;52.424;10.840;2024-03-22T06:54:13;9.80;99.90
64869;DHT22;51349;52.424;10.840;2024-03-22T06:59:13;9.80;99.90
64869;DHT22;51349;52.424;10.840;2024-03-22T07:04:14;10.00;99.90
64869;DHT22;51349;52.424;10.840;2024-03-22T07:09:15;10.00;99.90
64869;DHT22;51349;52.424;10.840;2024-03-22T07:14:16;10.10;99.90
64869;DHT22;51349;52.424;10.840;2024-03-22T07:19:16;10.10;99.90
64869;DHT22;51349;52.424;10.840;2024-03-22T07:24:17;10.30;99.90
64869;DHT22;51349;52.424;10.840;2024-03-22T07:29:18;10.40;99.90
64869;DHT22;51349;52.424;10.840;2024-03-22T07:34:19;10.50;99.90
64869;DHT22;51349;52.424;10.840;2024-03-22T07:39:19;10.60;99.90
64869;DHT22;51349;52.424;10.840;2024-03-22T07:44:20;10.80;99.90
64869;DHT22;51349;52.424;10.840;2024-03-22T07:49:21;11.00;99.90
64869;DHT22;51349;52.424;10.840;2024-03-22T07:54:22;11.10;99.90
64869;DHT22;51349;52.424;10.840;2024-03-22T07:59:22;11.10;99.90
64869;DHT22;51349;52.424;10.840;2024-03-22T08:04:23;11.20;99.90
64869;DHT22;51349;52.424;10.840;2024-03-22T08:09:24;11.40;99.90
64869;DHT22;51349;52.424;10.840;2024-03-22T08:14:24;11.40;99.90
64869;DHT22;51349;52.424;10.840;2024-03-22T08:19:28;11.50;99.90
64869;DHT22;51349;52.424;10.840;2024-03-22T08:24:28;11.50;99.90
64869;DHT22;51349;52.424;10.840;2024-03-22T08:29:32;11.50;99.90
64869;DHT22;51349;52.424;10.840;2024-03-22T08:34:33;11.50;99.90
64869;DHT22;51349;52.424;10.840;2024-03-22T08:39:37;11.60;99.90
64869;DHT22;51349;52.424;10.840;2024-03-22T08:44:39;11.60;99.90
64869;DHT22;51349;52.424;10.840;2024-03-22T08:49:43;11.60;99.90
64869;DHT22;51349;52.424;10.840;2024-03-22T08:54:45;11.60;99.90
64869;DHT22;51349;52.424;10.840;2024-03-22T08:59:47;11.70;99.90
64869;DHT22;51349;52.424;10.840;2024-03-22T09:04:48;11.60;99.90
64869;DHT22;51349;52.424;10.840;2024-03-22T09:09:49;11.70;99.90
64869;DHT22;51349;52.424;10.840;2024-03-22T09:14:49;11.80;99.90
64869;DHT22;51349;52.424;10.840;2024-03-22T09:19:50;11.90;99.90
64869;DHT22;51349;52.424;10.840;2024-03-22T09:24:51;12.10;99.90
64869;DHT22;51349;52.424;10.840;2024-03-22T09:29:51;12.20;99.90
64869;DHT22;51349;52.424;10.840;2024-03-22T09:34:53;12.30;99.90
64869;DHT22;51349;52.424;10.840;2024-03-22T09:39:53;12.30;99.90
64869;DHT22;51349;52.424;10.840;2024-03-22T09:44:54;12.30;99.90
64869;DHT22;51349;52.424;10.840;2024-03-22T09:49:58;12.40;99.90
64869;DHT22;51349;52.424;10.840;2024-03-22T09:54:59;12.30;99.90
64869;DHT22;51349;52.424;10.840;2024-03-22T10:00:00;12.30;99.90
64869;DHT22;51349;52.424;10.840;2024-03-22T10:05:02;12.20;99.90
64869;DHT22;51349;52.424;10.840;2024-03-22T10:10:08;12.00;99.90
64869;DHT22;51349;52.424;10.840;2024-03-22T10:15:09;11.90;99.90
64869;DHT22;51349;52.424;10.840;2024-03-22T10:20:13;12.00;99.90
64869;DHT22;51349;52.424;10.840;2024-03-22T10:25:14;11.80;99.90
64869;DHT22;51349;52.424;10.840;2024-03-22T10:30:16;11.70;99.90
64869;DHT22;51349;52.424;10.840;2024-03-22T10:35:18;11.90;99.90
64869;DHT22;51349;52.424;10.840;2024-03-22T10:40:19;11.90;99.90
64869;DHT22;51349;52.424;10.840;2024-03-22T10:45:23;12.10;99.90
64869;DHT22;51349;52.424;10.840;2024-03-22T10:50:32;12.40;99.90
64869;DHT22;51349;52.424;10.840;2024-03-22T10:55:43;12.90;99.90
64869;DHT22;51349;52.424;10.840;2024-03-22T11:00:46;13.20;99.90
64869;DHT22;51349;52.424;10.840;2024-03-22T11:05:48;13.00;99.90
64869;DHT22;51349;52.424;10.840;2024-03-22T11:10:50;13.10;99.90
64869;DHT22;51349;52.424;10.840;2024-03-22T11:15:51;13.20;99.90
64869;DHT22;51349;52.424;10.840;2024-03-22T11:20:51;13.30;99.90
64869;DHT22;51349;52.424;10.840;2024-03-22T11:25:53;13.50;99.90
64869;DHT22;51349;52.424;10.840;2024-03-22T11:30:53;13.40;99.90
64869;DHT22;51349;52.424;10.840;2024-03-22T11:35:54;13.50;99.90
64869;DHT22;51349;52.424;10.840;2024-03-22T11:40:56;13.70;99.90
64869;DHT22;51349;52.424;10.840;2024-03-22T11:45:58;13.60;99.90
64869;DHT22;51349;52.424;10.840;2024-03-22T11:50:58;13.30;99.90
64869;DHT22;51349;52.424;10.840;2024-03-22T11:56:01;13.30;99.90
64869;DHT22;51349;52.424;10.840;2024-03-22T12:01:04;13.40;99.90
64869;DHT22;51349;52.424;10.840;2024-03-22T12:06:04;13.70;99.90
64869;DHT22;51349;52.424;10.840;2024-03-22T12:11:07;14.40;99.90
64869;DHT22;51349;52.424;10.840;2024-03-22T12:16:08;14.50;99.90
64869;DHT22;51349;52.424;10.840;2024-03-22T12:21:09;14.00;99.90
64869;DHT22;51349;52.424;10.840;2024-03-22T12:26:10;14.10;99.90
64869;DHT22;51349;52.424;10.840;2024-03-22T12:31:10;14.10;99.90
64869;DHT22;51349;52.424;10.840;2024-03-22T12:36:20;14.40;99.90
64869;DHT22;51349;52.424;10.840;2024-03-22T12:41:21;14.40;99.90
64869;DHT22;51349;52.424;10.840;2024-03-22T12:46:22;14.40;99.90
64869;DHT22;51349;52.424;10.840;2024-03-22T12:51:22;14.50;99.90
64869;DHT22;51349;52.424;10.840;2024-03-22T12:56:30;14.30;99.90
64869;DHT22;51349;52.424;10.840;2024-03-22T13:01:33;14.10;99.90
64869;DHT22;51349;52.424;10.840;2024-03-22T13:06:34;14.10;99.90
64869;DHT22;51349;52.424;10.840;2024-03-22T13:11:36;14.10;99.90
64869;DHT22;51349;52.424;10.840;2024-03-22T13:16:38;14.10;99.90
64869;DHT22;51349;52.424;10.840;2024-03-22T13:21:38;14.00;99.90
64869;DHT22;51349;52.424;10.840;2024-03-22T13:26:39;14.20;99.90
64869;DHT22;51349;52.424;10.840;2024-03-22T13:31:40;13.90;99.90
64869;DHT22;51349;52.424;10.840;2024-03-22T13:36:40;13.90;99.90
64869;DHT22;51349;52.424;10.840;2024-03-22T13:41:41;13.80;99.90
64869;DHT22;51349;52.424;10.840;2024-03-22T13:46:42;13.80;99.90
64869;DHT22;51349;52.424;10.840;2024-03-22T13:51:43;13.60;99.90
64869;DHT22;51349;52.424;10.840;2024-03-22T13:56:44;13.50;99.90
64869;DHT22;51349;52.424;10.840;2024-03-22T14:01:45;13.50;99.90
64869;DHT22;51349;52.424;10.840;2024-03-22T14:06:48;13.50;99.90
64869;DHT22;51349;52.424;10.840;2024-03-22T14:11:49;13.40;99.90
64869;DHT22;51349;52.424;10.840;2024-03-22T14:16:49;13.30;99.90
64869;DHT22;51349;52.424;10.840;2024-03-22T14:21:50;13.20;99.90
64869;DHT22;51349;52.424;10.840;2024-03-22T14:26:51;13.20;99.90
64869;DHT22;51349;52.424;10.840;2024-03-22T14:31:52;13.10;99.90
64869;DHT22;51349;52.424;10.840;2024-03-22T14:36:53;13.00;99.90
64869;DHT22;51349;52.424;10.840;2024-03-22T14:41:54;12.80;99.90
64869;DHT22;51349;52.424;10.840;2024-03-22T14:46:55;12.70;99.90
64869;DHT22;51349;52.424;10.840;2024-03-22T14:51:58;12.70;99.90
64869;DHT22;51349;52.424;10.840;2024-03-22T14:56:59;12.70;99.90
64869;DHT22;51349;52.424;10.840;2024-03-22T15:02:00;12.60;99.90
64869;DHT22;51349;52.424;10.840;2024-03-22T15:07:00;12.50;99.90
64869;DHT22;51349;52.424;10.840;2024-03-22T15:12:01;12.40;99.90
64869;DHT22;51349;52.424;10.840;2024-03-22T15:17:02;12.30;99.90
64869;DHT22;51349;52.424;10.840;2024-03-22T15:22:02;12.10;99.90
64869;DHT22;51349;52.424;10.840;2024-03-22T15:27:04;12.00;99.90
64869;DHT22;51349;52.424;10.840;2024-03-22T15:32:05;11.90;99.90
64869;DHT22;51349;52.424;10.840;2024-03-22T15:37:07;11.80;99.90
64869;DHT22;51349;52.424;10.840;2024-03-22T15:42:07;11.70;99.90
64869;DHT22;51349;52.424;10.840;2024-03-22T15:47:08;11.50;99.90
64869;DHT22;51349;52.424;10.840;2024-03-22T15:52:12;11.40;99.90
64869;DHT22;51349;52.424;10.840;2024-03-22T15:57:14;11.30;99.90
64869;DHT22;51349;52.424;10.840;2024-03-22T16:02:15;11.10;99.90
64869;DHT22;51349;52.424;10.840;2024-03-22T16:07:16;11.10;99.90
64869;DHT22;51349;52.424;10.840;2024-03-22T16:12:18;11.00;99.90
64869;DHT22;51349;52.424;10.840;2024-03-22T16:17:18;10.90;99.90
64869;DHT22;51349;52.424;10.840;2024-03-22T16:22:19;10.90;99.90
64869;DHT22;51349;52.424;10.840;2024-03-22T16:27:21;10.80;99.90
64869;DHT22;51349;52.424;10.840;2024-03-22T16:32:25;10.70;99.90
64869;DHT22;51349;52.424;10.840;2024-03-22T16:37:26;10.70;99.90
64869;DHT22;51349;52.424;10.840;2024-03-22T16:42:27;10.60;99.90
64869;DHT22;51349;52.424;10.840;2024-03-22T16:47:27;10.60;99.90
64869;DHT22;51349;52.424;10.840;2024-03-22T16:52:29;10.50;99.90
64869;DHT22;51349;52.424;10.840;2024-03-22T16:57:32;10.50;99.90
64869;DHT22;51349;52.424;10.840;2024-03-22T17:02:33;10.50;99.90
64869;DHT22;51349;52.424;10.840;2024-03-22T17:07:33;10.40;99.90
64869;DHT22;51349;52.424;10.840;2024-03-22T17:12:34;10.40;99.90
64869;DHT22;51349;52.424;10.840;2024-03-22T17:17:35;10.40;99.90
64869;DHT22;51349;52.424;10.840;2024-03-22T17:22:36;10.30;99.90
64869;DHT22;51349;52.424;10.840;2024-03-22T17:27:36;10.30;99.90
64869;DHT22;51349;52.424;10.840;2024-03-22T17:32:37;10.30;99.90
64869;DHT22;51349;52.424;10.840;2024-03-22T17:37:38;10.20;99.90
64869;DHT22;51349;52.424;10.840;2024-03-22T17:42:40;10.10;99.90
64869;DHT22;51349;52.424;10.840;2024-03-22T17:47:40;10.10;99.90
64869;DHT22;51349;52.424;10.840;2024-03-22T17:52:41;10.10;99.90
64869;DHT22;51349;52.424;10.840;2024-03-22T17:57:42;10.10;99.90
64869;DHT22;51349;52.424;10.840;2024-03-22T18:02:43;10.00;99.90
64869;DHT22;51349;52.424;10.840;2024-03-22T18:07:43;10.10;99.90
64869;DHT22;51349;52.424;10.840;2024-03-22T18:12:44;10.00;99.90
64869;DHT22;51349;52.424;10.840;2024-03-22T18:17:45;10.00;99.90
64869;DHT22;51349;52.424;10.840;2024-03-22T18:22:45;10.00;99.90
64869;DHT22;51349;52.424;10.840;2024-03-22T18:27:46;10.00;99.90
64869;DHT22;51349;52.424;10.840;2024-03-22T18:32:47;9.90;99.90
64869;DHT22;51349;52.424;10.840;2024-03-22T18:37:47;9.90;99.90
64869;DHT22;51349;52.424;10.840;2024-03-22T18:42:48;9.90;99.90
64869;DHT22;51349;52.424;10.840;2024-03-22T18:47:49;9.90;99.90
64869;DHT22;51349;52.424;10.840;2024-03-22T18:52:49;9.80;99.90
64869;DHT22;51349;52.424;10.840;2024-03-22T18:57:50;9.80;99.90
64869;DHT22;51349;52.424;10.840;2024-03-22T19:02:51;9.80;99.90
64869;DHT22;51349;52.424;10.840;2024-03-22T19:07:52;9.80;99.90
64869;DHT22;51349;52.424;10.840;2024-03-22T19:12:52;9.80;99.90
64869;DHT22;51349;52.424;10.840;2024-03-22T19:17:54;9.70;99.90
64869;DHT22;51349;52.424;10.840;2024-03-22T19:22:54;9.70;99.90
64869;DHT22;51349;52.424;10.840;2024-03-22T19:27:55;9.70;99.90
64869;DHT22;51349;52.424;10.840;2024-03-22T19:32:57;9.70;99.90
64869;DHT22;51349;52.424;10.840;2024-03-22T19:37:58;9.70;99.90
64869;DHT22;51349;52.424;10.840;2024-03-22T19:42:59;9.70;99.90
64869;DHT22;51349;52.424;10.840;2024-03-22T19:47:59;9.50;99.90
64869;DHT22;51349;52.424;10.840;2024-03-22T19:53:00;9.40;99.90
64869;DHT22;51349;52.424;10.840;2024-03-22T19:58:01;9.30;99.90
64869;DHT22;51349;52.424;10.840;2024-03-22T20:03:01;9.20;99.90
64869;DHT22;51349;52.424;10.840;2024-03-22T20:08:02;9.10;99.90
64869;DHT22;51349;52.424;10.840;2024-03-22T20:13:03;9.00;99.90
64869;DHT22;51349;52.424;10.840;2024-03-22T20:18:05;8.90;99.90
64869;DHT22;51349;52.424;10.840;2024-03-22T20:23:06;8.80;99.90
64869;DHT22;51349;52.424;10.840;2024-03-22T20:28:09;8.80;99.90
64869;DHT22;51349;52.424;10.840;2024-03-22T20:33:09;8.60;99.90
